< < Back
Terminal Aerodrome Forecast


Current Version              Previous Versions:   1  2  3  4  5  6  7  8  9  

Terminal Aerodrome Forecast

881
FTUS42 KFFC 311558 AAB
TAFATL
TAF AMD
KATL 311558Z 3116/0118 07004KT P6SM FEW050
     FM311800 34006KT P6SM SCT060
     FM010100 06004KT P6SM SCT100
     FM011400 12005KT P6SM FEW040=

Latest METAR

145
SAUS70 KWBC 312000 RRK
MTRATL
METAR KATL 311952Z 11008KT 070V140 10SM FEW070TCU SCT100 SCT250 32/17
A2993 RMK AO2 SLP122 CB DSNT E-SE TCU N-NE & DSNT S-SW
T03220167


USA.gov is the U.S. government's official web portal to all federal, state and local government web resources and services.